aviador You're here:

LFLS Decoded Metar

GRENOBLE in FRANCE
Report Time2018-02-20 13:30:00
UTC Time2018-02-20 13:52:17
Flight Rules vfr VFR
Wind350° at 13 kt
W.Decomp.*RWY 27: 2.3 kt HW 12.8 kt RCW
W.Rank350° ranks 4
Current wind is above 350° avg. (9.0)
Visibility9999 m
Phenomena:N/A
Clouds:N/A
Expected CloudBase > 3,200 ft AGL from Temp-Dew spread
CeilingNone
Temp06°C (ISA -6)
Dew Point-2°C (57% RH)
AAT-0.9°C
QNH1011 hPa
Density Alt633 ft
Elevation1,266 ft
Report Wrong Elevation
Raw Report
LFLS 201330Z AUTO 35013KT 330V050 CAVOK 06/M02 Q1011 TEMPO
35015G25KT=

Extra information for LFLS:More info

Metar Taf Metar & Taf Last 4 Metars F.Rules Stats Wind Profile Meteogram Temp Stats Airport Information Weather charts Add Link Nearby VenuesMetar ALERT Operation Metar Decoded Social comments